sensor_id;sensor_type;location;lat;lon;timestamp;temperature;humidity
51793;DHT22;37850;53.178;6.376;2023-09-19T00:01:07;15.20;99.90
51793;DHT22;37850;53.178;6.376;2023-09-19T00:03:34;15.20;99.90
51793;DHT22;37850;53.178;6.376;2023-09-19T00:06:03;15.20;99.90
51793;DHT22;37850;53.178;6.376;2023-09-19T00:08:30;15.20;99.90
51793;DHT22;37850;53.178;6.376;2023-09-19T00:10:56;15.10;99.90
51793;DHT22;37850;53.178;6.376;2023-09-19T00:13:34;15.10;99.90
51793;DHT22;37850;53.178;6.376;2023-09-19T00:16:01;15.00;99.90
51793;DHT22;37850;53.178;6.376;2023-09-19T00:18:33;15.10;99.90
51793;DHT22;37850;53.178;6.376;2023-09-19T00:21:00;15.00;99.90
51793;DHT22;37850;53.178;6.376;2023-09-19T00:23:26;15.00;99.90
51793;DHT22;37850;53.178;6.376;2023-09-19T00:25:52;15.00;99.90
51793;DHT22;37850;53.178;6.376;2023-09-19T00:28:23;15.00;99.90
51793;DHT22;37850;53.178;6.376;2023-09-19T00:30:49;14.90;99.90
51793;DHT22;37850;53.178;6.376;2023-09-19T00:33:21;14.90;99.90
51793;DHT22;37850;53.178;6.376;2023-09-19T00:35:54;14.80;99.90
51793;DHT22;37850;53.178;6.376;2023-09-19T00:38:21;14.80;99.90
51793;DHT22;37850;53.178;6.376;2023-09-19T00:40:48;14.70;99.90
51793;DHT22;37850;53.178;6.376;2023-09-19T00:43:15;14.70;99.90
51793;DHT22;37850;53.178;6.376;2023-09-19T00:45:44;14.60;99.90
51793;DHT22;37850;53.178;6.376;2023-09-19T00:48:11;14.60;99.90
51793;DHT22;37850;53.178;6.376;2023-09-19T00:50:38;14.60;99.90
51793;DHT22;37850;53.178;6.376;2023-09-19T00:53:08;14.50;99.90
51793;DHT22;37850;53.178;6.376;2023-09-19T00:55:38;14.50;99.90
51793;DHT22;37850;53.178;6.376;2023-09-19T00:58:04;14.50;99.90
51793;DHT22;37850;53.178;6.376;2023-09-19T01:00:33;14.50;99.90
51793;DHT22;37850;53.178;6.376;2023-09-19T01:03:00;14.50;99.90
51793;DHT22;37850;53.178;6.376;2023-09-19T01:05:29;14.40;99.90
51793;DHT22;37850;53.178;6.376;2023-09-19T01:07:57;14.40;99.90
51793;DHT22;37850;53.178;6.376;2023-09-19T01:10:24;14.40;99.90
51793;DHT22;37850;53.178;6.376;2023-09-19T01:16:16;14.30;99.90
51793;DHT22;37850;53.178;6.376;2023-09-19T01:18:55;14.30;99.90
51793;DHT22;37850;53.178;6.376;2023-09-19T01:29:46;14.20;99.90
51793;DHT22;37850;53.178;6.376;2023-09-19T01:32:19;14.10;99.90
51793;DHT22;37850;53.178;6.376;2023-09-19T01:34:55;14.10;99.90
51793;DHT22;37850;53.178;6.376;2023-09-19T01:37:29;14.10;99.90
51793;DHT22;37850;53.178;6.376;2023-09-19T01:40:00;14.00;99.90
51793;DHT22;37850;53.178;6.376;2023-09-19T01:42:49;14.00;99.90
51793;DHT22;37850;53.178;6.376;2023-09-19T01:51:06;14.00;99.90
51793;DHT22;37850;53.178;6.376;2023-09-19T01:54:04;13.90;99.90
51793;DHT22;37850;53.178;6.376;2023-09-19T01:56:50;13.90;99.90
51793;DHT22;37850;53.178;6.376;2023-09-19T01:59:22;13.80;99.90
51793;DHT22;37850;53.178;6.376;2023-09-19T02:01:49;13.80;99.90
51793;DHT22;37850;53.178;6.376;2023-09-19T02:04:17;13.80;99.90
51793;DHT22;37850;53.178;6.376;2023-09-19T02:06:43;13.80;99.90
51793;DHT22;37850;53.178;6.376;2023-09-19T02:09:09;13.70;99.90
51793;DHT22;37850;53.178;6.376;2023-09-19T02:11:35;13.70;99.90
51793;DHT22;37850;53.178;6.376;2023-09-19T02:14:02;13.70;99.90
51793;DHT22;37850;53.178;6.376;2023-09-19T02:16:28;13.70;99.90
51793;DHT22;37850;53.178;6.376;2023-09-19T02:18:54;13.70;99.90
51793;DHT22;37850;53.178;6.376;2023-09-19T02:21:20;13.70;99.90
51793;DHT22;37850;53.178;6.376;2023-09-19T02:23:47;13.70;99.90
51793;DHT22;37850;53.178;6.376;2023-09-19T02:26:13;13.60;99.90
51793;DHT22;37850;53.178;6.376;2023-09-19T02:28:39;13.60;99.90
51793;DHT22;37850;53.178;6.376;2023-09-19T02:31:05;13.60;99.90
51793;DHT22;37850;53.178;6.376;2023-09-19T02:33:31;13.60;99.90
51793;DHT22;37850;53.178;6.376;2023-09-19T02:35:58;13.50;99.90
51793;DHT22;37850;53.178;6.376;2023-09-19T02:38:27;13.50;99.90
51793;DHT22;37850;53.178;6.376;2023-09-19T02:40:54;13.50;99.90
51793;DHT22;37850;53.178;6.376;2023-09-19T02:43:21;13.50;99.90
51793;DHT22;37850;53.178;6.376;2023-09-19T02:45:47;13.50;99.90
51793;DHT22;37850;53.178;6.376;2023-09-19T02:48:18;13.50;99.90
51793;DHT22;37850;53.178;6.376;2023-09-19T02:50:44;13.40;99.90
51793;DHT22;37850;53.178;6.376;2023-09-19T02:53:11;13.40;99.90
51793;DHT22;37850;53.178;6.376;2023-09-19T02:55:38;13.40;99.90
51793;DHT22;37850;53.178;6.376;2023-09-19T02:58:06;13.40;99.90
51793;DHT22;37850;53.178;6.376;2023-09-19T03:00:41;13.40;99.90
51793;DHT22;37850;53.178;6.376;2023-09-19T03:03:10;13.30;99.90
51793;DHT22;37850;53.178;6.376;2023-09-19T03:05:36;13.40;99.90
51793;DHT22;37850;53.178;6.376;2023-09-19T03:08:03;13.30;99.90
51793;DHT22;37850;53.178;6.376;2023-09-19T03:10:30;13.30;99.90
51793;DHT22;37850;53.178;6.376;2023-09-19T03:12:57;13.30;99.90
51793;DHT22;37850;53.178;6.376;2023-09-19T03:15:23;13.30;99.90
51793;DHT22;37850;53.178;6.376;2023-09-19T03:17:49;13.20;99.90
51793;DHT22;37850;53.178;6.376;2023-09-19T03:20:15;13.20;99.90
51793;DHT22;37850;53.178;6.376;2023-09-19T03:22:44;13.10;99.90
51793;DHT22;37850;53.178;6.376;2023-09-19T03:25:10;13.10;99.90
51793;DHT22;37850;53.178;6.376;2023-09-19T03:27:39;13.10;99.90
51793;DHT22;37850;53.178;6.376;2023-09-19T03:30:06;13.10;99.90
51793;DHT22;37850;53.178;6.376;2023-09-19T03:32:43;13.10;99.90
51793;DHT22;37850;53.178;6.376;2023-09-19T03:35:09;13.10;99.90
51793;DHT22;37850;53.178;6.376;2023-09-19T03:37:34;13.10;99.90
51793;DHT22;37850;53.178;6.376;2023-09-19T03:40:00;13.10;99.90
51793;DHT22;37850;53.178;6.376;2023-09-19T03:42:30;13.00;99.90
51793;DHT22;37850;53.178;6.376;2023-09-19T03:44:56;13.00;99.90
51793;DHT22;37850;53.178;6.376;2023-09-19T03:47:22;13.00;99.90
51793;DHT22;37850;53.178;6.376;2023-09-19T03:49:48;13.00;99.90
51793;DHT22;37850;53.178;6.376;2023-09-19T03:52:14;13.00;99.90
51793;DHT22;37850;53.178;6.376;2023-09-19T03:54:41;12.90;99.90
51793;DHT22;37850;53.178;6.376;2023-09-19T03:57:08;12.90;99.90
51793;DHT22;37850;53.178;6.376;2023-09-19T03:59:33;12.90;99.90
51793;DHT22;37850;53.178;6.376;2023-09-19T04:02:01;12.90;99.90
51793;DHT22;37850;53.178;6.376;2023-09-19T04:04:27;12.90;99.90
51793;DHT22;37850;53.178;6.376;2023-09-19T04:06:54;12.90;99.90
51793;DHT22;37850;53.178;6.376;2023-09-19T04:09:20;12.90;99.90
51793;DHT22;37850;53.178;6.376;2023-09-19T04:11:46;12.90;99.90
51793;DHT22;37850;53.178;6.376;2023-09-19T04:14:11;12.90;99.90
51793;DHT22;37850;53.178;6.376;2023-09-19T04:16:37;12.90;99.90
51793;DHT22;37850;53.178;6.376;2023-09-19T04:19:04;12.90;99.90
51793;DHT22;37850;53.178;6.376;2023-09-19T04:21:31;12.90;99.90
51793;DHT22;37850;53.178;6.376;2023-09-19T04:23:57;12.90;99.90
51793;DHT22;37850;53.178;6.376;2023-09-19T04:26:23;12.90;99.90
51793;DHT22;37850;53.178;6.376;2023-09-19T04:28:48;12.90;99.90
51793;DHT22;37850;53.178;6.376;2023-09-19T04:31:14;12.90;99.90
51793;DHT22;37850;53.178;6.376;2023-09-19T04:33:40;12.90;99.90
51793;DHT22;37850;53.178;6.376;2023-09-19T04:36:06;12.90;99.90
51793;DHT22;37850;53.178;6.376;2023-09-19T04:38:33;13.00;99.90
51793;DHT22;37850;53.178;6.376;2023-09-19T04:40:59;13.00;99.90
51793;DHT22;37850;53.178;6.376;2023-09-19T04:43:26;13.00;99.90
51793;DHT22;37850;53.178;6.376;2023-09-19T04:45:52;12.90;99.90
51793;DHT22;37850;53.178;6.376;2023-09-19T04:48:22;13.00;99.90
51793;DHT22;37850;53.178;6.376;2023-09-19T04:50:51;13.00;99.90
51793;DHT22;37850;53.178;6.376;2023-09-19T04:53:18;13.00;99.90
51793;DHT22;37850;53.178;6.376;2023-09-19T04:55:49;13.00;99.90
51793;DHT22;37850;53.178;6.376;2023-09-19T04:58:15;13.00;99.90
51793;DHT22;37850;53.178;6.376;2023-09-19T05:00:41;13.00;99.90
51793;DHT22;37850;53.178;6.376;2023-09-19T05:03:06;13.00;99.90
51793;DHT22;37850;53.178;6.376;2023-09-19T05:05:34;13.00;99.90
51793;DHT22;37850;53.178;6.376;2023-09-19T05:08:00;13.00;99.90
51793;DHT22;37850;53.178;6.376;2023-09-19T05:10:26;13.00;99.90
51793;DHT22;37850;53.178;6.376;2023-09-19T05:12:54;13.10;99.90
51793;DHT22;37850;53.178;6.376;2023-09-19T05:15:20;13.10;99.90
51793;DHT22;37850;53.178;6.376;2023-09-19T05:17:50;13.10;99.90
51793;DHT22;37850;53.178;6.376;2023-09-19T05:20:17;13.10;99.90
51793;DHT22;37850;53.178;6.376;2023-09-19T05:23:05;13.10;99.90
51793;DHT22;37850;53.178;6.376;2023-09-19T05:25:38;13.10;99.90
51793;DHT22;37850;53.178;6.376;2023-09-19T05:28:09;13.10;99.90
51793;DHT22;37850;53.178;6.376;2023-09-19T05:30:36;13.10;99.90
51793;DHT22;37850;53.178;6.376;2023-09-19T05:33:04;13.10;99.90
51793;DHT22;37850;53.178;6.376;2023-09-19T05:35:31;13.10;99.90
51793;DHT22;37850;53.178;6.376;2023-09-19T05:37:57;13.10;99.90
51793;DHT22;37850;53.178;6.376;2023-09-19T05:40:24;13.20;99.90
51793;DHT22;37850;53.178;6.376;2023-09-19T05:42:50;13.20;99.90
51793;DHT22;37850;53.178;6.376;2023-09-19T05:45:16;13.20;99.90
51793;DHT22;37850;53.178;6.376;2023-09-19T05:47:51;13.20;99.90
51793;DHT22;37850;53.178;6.376;2023-09-19T05:50:21;13.20;99.90
51793;DHT22;37850;53.178;6.376;2023-09-19T05:52:52;13.20;99.90
51793;DHT22;37850;53.178;6.376;2023-09-19T05:55:18;13.20;99.90
51793;DHT22;37850;53.178;6.376;2023-09-19T05:57:50;13.20;99.90
51793;DHT22;37850;53.178;6.376;2023-09-19T06:00:16;13.30;99.90
51793;DHT22;37850;53.178;6.376;2023-09-19T06:02:43;13.30;99.90
51793;DHT22;37850;53.178;6.376;2023-09-19T06:05:10;13.30;99.90
51793;DHT22;37850;53.178;6.376;2023-09-19T06:07:38;13.30;99.90
51793;DHT22;37850;53.178;6.376;2023-09-19T06:10:05;13.30;99.90
51793;DHT22;37850;53.178;6.376;2023-09-19T06:12:31;13.30;99.90
51793;DHT22;37850;53.178;6.376;2023-09-19T06:14:59;13.30;99.90
51793;DHT22;37850;53.178;6.376;2023-09-19T06:17:25;13.30;99.90
51793;DHT22;37850;53.178;6.376;2023-09-19T06:19:53;13.40;99.90
51793;DHT22;37850;53.178;6.376;2023-09-19T06:22:18;13.40;99.90
51793;DHT22;37850;53.178;6.376;2023-09-19T06:24:45;13.40;99.90
51793;DHT22;37850;53.178;6.376;2023-09-19T06:27:12;13.40;99.90
51793;DHT22;37850;53.178;6.376;2023-09-19T06:29:39;13.40;99.90
51793;DHT22;37850;53.178;6.376;2023-09-19T06:32:08;13.40;99.90
51793;DHT22;37850;53.178;6.376;2023-09-19T06:34:34;13.50;99.90
51793;DHT22;37850;53.178;6.376;2023-09-19T06:37:00;13.50;99.90
51793;DHT22;37850;53.178;6.376;2023-09-19T06:39:26;13.50;99.90
51793;DHT22;37850;53.178;6.376;2023-09-19T06:41:52;13.60;99.90
51793;DHT22;37850;53.178;6.376;2023-09-19T06:44:21;13.60;99.90
51793;DHT22;37850;53.178;6.376;2023-09-19T06:46:50;13.60;99.90
51793;DHT22;37850;53.178;6.376;2023-09-19T06:49:17;13.60;99.90
51793;DHT22;37850;53.178;6.376;2023-09-19T06:51:43;13.60;99.90
51793;DHT22;37850;53.178;6.376;2023-09-19T06:54:10;13.70;99.90
51793;DHT22;37850;53.178;6.376;2023-09-19T06:56:35;13.70;99.90
51793;DHT22;37850;53.178;6.376;2023-09-19T06:59:01;13.70;99.90
51793;DHT22;37850;53.178;6.376;2023-09-19T07:01:28;13.80;99.90
51793;DHT22;37850;53.178;6.376;2023-09-19T07:03:54;13.80;99.90
51793;DHT22;37850;53.178;6.376;2023-09-19T07:06:20;13.90;99.90
51793;DHT22;37850;53.178;6.376;2023-09-19T07:08:46;13.90;99.90
51793;DHT22;37850;53.178;6.376;2023-09-19T07:11:12;14.00;99.90
51793;DHT22;37850;53.178;6.376;2023-09-19T07:13:38;14.10;99.90
51793;DHT22;37850;53.178;6.376;2023-09-19T07:16:04;14.10;99.90
51793;DHT22;37850;53.178;6.376;2023-09-19T07:18:31;14.20;99.90
51793;DHT22;37850;53.178;6.376;2023-09-19T07:21:00;14.30;99.90
51793;DHT22;37850;53.178;6.376;2023-09-19T07:23:31;14.40;99.90
51793;DHT22;37850;53.178;6.376;2023-09-19T07:26:01;14.50;99.90
51793;DHT22;37850;53.178;6.376;2023-09-19T07:28:27;14.60;99.90
51793;DHT22;37850;53.178;6.376;2023-09-19T07:30:53;14.70;99.90
51793;DHT22;37850;53.178;6.376;2023-09-19T07:33:19;14.70;99.90
51793;DHT22;37850;53.178;6.376;2023-09-19T07:35:46;14.80;99.90
51793;DHT22;37850;53.178;6.376;2023-09-19T07:38:12;14.80;99.90
51793;DHT22;37850;53.178;6.376;2023-09-19T07:40:38;14.80;99.90
51793;DHT22;37850;53.178;6.376;2023-09-19T07:43:05;14.90;99.90
51793;DHT22;37850;53.178;6.376;2023-09-19T07:45:32;14.90;99.90
51793;DHT22;37850;53.178;6.376;2023-09-19T07:47:58;15.10;99.90
51793;DHT22;37850;53.178;6.376;2023-09-19T07:50:24;15.10;99.90
51793;DHT22;37850;53.178;6.376;2023-09-19T07:52:52;15.20;99.90
51793;DHT22;37850;53.178;6.376;2023-09-19T07:55:19;15.30;99.90
51793;DHT22;37850;53.178;6.376;2023-09-19T07:57:48;15.40;99.90
51793;DHT22;37850;53.178;6.376;2023-09-19T08:00:15;15.20;99.90
51793;DHT22;37850;53.178;6.376;2023-09-19T08:02:41;15.30;99.90
51793;DHT22;37850;53.178;6.376;2023-09-19T08:05:09;15.30;99.90
51793;DHT22;37850;53.178;6.376;2023-09-19T08:07:43;15.40;99.90
51793;DHT22;37850;53.178;6.376;2023-09-19T08:10:09;15.40;99.90
51793;DHT22;37850;53.178;6.376;2023-09-19T08:12:45;15.40;99.90
51793;DHT22;37850;53.178;6.376;2023-09-19T08:17:40;15.50;99.90
51793;DHT22;37850;53.178;6.376;2023-09-19T08:20:07;15.50;99.90
51793;DHT22;37850;53.178;6.376;2023-09-19T08:22:33;15.50;99.90
51793;DHT22;37850;53.178;6.376;2023-09-19T08:25:00;15.60;99.90
51793;DHT22;37850;53.178;6.376;2023-09-19T08:27:27;15.70;99.90
51793;DHT22;37850;53.178;6.376;2023-09-19T08:29:53;15.70;99.90
51793;DHT22;37850;53.178;6.376;2023-09-19T08:32:19;15.80;99.90
51793;DHT22;37850;53.178;6.376;2023-09-19T08:34:50;15.80;99.90
51793;DHT22;37850;53.178;6.376;2023-09-19T08:37:15;15.90;99.90
51793;DHT22;37850;53.178;6.376;2023-09-19T08:39:43;15.90;99.90
51793;DHT22;37850;53.178;6.376;2023-09-19T08:42:10;15.90;99.90
51793;DHT22;37850;53.178;6.376;2023-09-19T08:44:37;15.90;99.90
51793;DHT22;37850;53.178;6.376;2023-09-19T08:47:15;16.00;99.90
51793;DHT22;37850;53.178;6.376;2023-09-19T08:49:53;16.10;99.90
51793;DHT22;37850;53.178;6.376;2023-09-19T08:52:28;16.10;99.90
51793;DHT22;37850;53.178;6.376;2023-09-19T08:54:59;16.10;99.90
51793;DHT22;37850;53.178;6.376;2023-09-19T08:57:33;16.20;99.90
51793;DHT22;37850;53.178;6.376;2023-09-19T09:00:02;16.20;99.90
51793;DHT22;37850;53.178;6.376;2023-09-19T09:02:40;16.20;99.90
51793;DHT22;37850;53.178;6.376;2023-09-19T09:05:09;16.30;99.90
51793;DHT22;37850;53.178;6.376;2023-09-19T09:07:37;16.30;99.90
51793;DHT22;37850;53.178;6.376;2023-09-19T09:10:04;16.40;99.90
51793;DHT22;37850;53.178;6.376;2023-09-19T09:12:30;16.40;99.90
51793;DHT22;37850;53.178;6.376;2023-09-19T09:14:56;16.40;99.90
51793;DHT22;37850;53.178;6.376;2023-09-19T09:17:23;16.40;99.90
51793;DHT22;37850;53.178;6.376;2023-09-19T09:19:56;16.40;99.90
51793;DHT22;37850;53.178;6.376;2023-09-19T09:22:22;16.50;99.90
51793;DHT22;37850;53.178;6.376;2023-09-19T09:27:24;16.50;99.90
51793;DHT22;37850;53.178;6.376;2023-09-19T09:29:51;16.60;99.90
51793;DHT22;37850;53.178;6.376;2023-09-19T09:32:26;16.60;99.90
51793;DHT22;37850;53.178;6.376;2023-09-19T09:34:53;16.60;99.90
51793;DHT22;37850;53.178;6.376;2023-09-19T09:37:21;16.70;99.90
51793;DHT22;37850;53.178;6.376;2023-09-19T09:40:01;16.70;99.90
51793;DHT22;37850;53.178;6.376;2023-09-19T09:42:43;16.70;99.90
51793;DHT22;37850;53.178;6.376;2023-09-19T09:45:25;16.70;99.90
51793;DHT22;37850;53.178;6.376;2023-09-19T09:47:54;16.70;99.90
51793;DHT22;37850;53.178;6.376;2023-09-19T09:50:27;16.70;99.90
51793;DHT22;37850;53.178;6.376;2023-09-19T09:52:56;16.80;99.90
51793;DHT22;37850;53.178;6.376;2023-09-19T09:58:26;16.80;99.90
51793;DHT22;37850;53.178;6.376;2023-09-19T10:00:56;16.80;99.90
51793;DHT22;37850;53.178;6.376;2023-09-19T10:03:36;16.80;99.90
51793;DHT22;37850;53.178;6.376;2023-09-19T10:06:08;16.80;99.90
51793;DHT22;37850;53.178;6.376;2023-09-19T10:09:07;16.80;99.90
51793;DHT22;37850;53.178;6.376;2023-09-19T10:11:47;16.90;99.90
51793;DHT22;37850;53.178;6.376;2023-09-19T10:14:17;17.00;99.90
51793;DHT22;37850;53.178;6.376;2023-09-19T10:16:48;17.00;99.90
51793;DHT22;37850;53.178;6.376;2023-09-19T10:19:24;17.10;99.90
51793;DHT22;37850;53.178;6.376;2023-09-19T10:21:56;17.20;99.90
51793;DHT22;37850;53.178;6.376;2023-09-19T10:24:26;17.20;99.90
51793;DHT22;37850;53.178;6.376;2023-09-19T10:26:53;17.30;99.90
51793;DHT22;37850;53.178;6.376;2023-09-19T10:29:21;17.30;99.90
51793;DHT22;37850;53.178;6.376;2023-09-19T10:31:48;17.40;99.90
51793;DHT22;37850;53.178;6.376;2023-09-19T10:34:17;17.50;99.90
51793;DHT22;37850;53.178;6.376;2023-09-19T10:36:46;17.50;99.90
51793;DHT22;37850;53.178;6.376;2023-09-19T10:39:16;17.60;99.90
51793;DHT22;37850;53.178;6.376;2023-09-19T10:41:50;17.60;99.90
51793;DHT22;37850;53.178;6.376;2023-09-19T10:44:24;17.60;99.90
51793;DHT22;37850;53.178;6.376;2023-09-19T10:46:54;17.60;99.90
51793;DHT22;37850;53.178;6.376;2023-09-19T10:49:21;17.60;99.90
51793;DHT22;37850;53.178;6.376;2023-09-19T10:51:50;17.60;99.90
51793;DHT22;37850;53.178;6.376;2023-09-19T10:54:22;17.50;99.90
51793;DHT22;37850;53.178;6.376;2023-09-19T10:56:53;17.50;99.90
51793;DHT22;37850;53.178;6.376;2023-09-19T10:59:20;17.50;99.90
51793;DHT22;37850;53.178;6.376;2023-09-19T11:01:51;17.40;99.90
51793;DHT22;37850;53.178;6.376;2023-09-19T11:07:12;17.40;99.90
51793;DHT22;37850;53.178;6.376;2023-09-19T11:09:49;17.30;99.90
51793;DHT22;37850;53.178;6.376;2023-09-19T11:15:07;17.30;99.90
51793;DHT22;37850;53.178;6.376;2023-09-19T11:17:35;17.30;99.90
51793;DHT22;37850;53.178;6.376;2023-09-19T11:30:40;17.30;99.90
51793;DHT22;37850;53.178;6.376;2023-09-19T11:33:28;17.30;99.90
51793;DHT22;37850;53.178;6.376;2023-09-19T11:36:11;17.30;99.90
51793;DHT22;37850;53.178;6.376;2023-09-19T11:43:52;17.50;99.90
51793;DHT22;37850;53.178;6.376;2023-09-19T11:46:20;17.60;99.90
51793;DHT22;37850;53.178;6.376;2023-09-19T11:48:50;17.60;99.90
51793;DHT22;37850;53.178;6.376;2023-09-19T11:51:20;17.70;99.90
51793;DHT22;37850;53.178;6.376;2023-09-19T11:53:56;17.70;99.90
51793;DHT22;37850;53.178;6.376;2023-09-19T11:56:24;17.70;99.90
51793;DHT22;37850;53.178;6.376;2023-09-19T11:58:53;17.70;99.90
51793;DHT22;37850;53.178;6.376;2023-09-19T12:01:25;17.70;99.90
51793;DHT22;37850;53.178;6.376;2023-09-19T12:03:56;17.60;99.90
51793;DHT22;37850;53.178;6.376;2023-09-19T12:06:28;17.60;99.90
51793;DHT22;37850;53.178;6.376;2023-09-19T12:08:55;17.60;99.90
51793;DHT22;37850;53.178;6.376;2023-09-19T12:11:30;17.60;99.90
51793;DHT22;37850;53.178;6.376;2023-09-19T12:13:59;17.60;99.90
51793;DHT22;37850;53.178;6.376;2023-09-19T12:16:26;17.60;99.90
51793;DHT22;37850;53.178;6.376;2023-09-19T12:18:56;17.60;99.90
51793;DHT22;37850;53.178;6.376;2023-09-19T12:21:30;17.60;99.90
51793;DHT22;37850;53.178;6.376;2023-09-19T12:24:06;17.60;99.90
51793;DHT22;37850;53.178;6.376;2023-09-19T12:26:44;17.50;99.90
51793;DHT22;37850;53.178;6.376;2023-09-19T12:29:20;17.50;99.90
51793;DHT22;37850;53.178;6.376;2023-09-19T12:31:57;17.40;99.90
51793;DHT22;37850;53.178;6.376;2023-09-19T12:34:26;17.40;99.90
51793;DHT22;37850;53.178;6.376;2023-09-19T12:37:22;17.30;99.90
51793;DHT22;37850;53.178;6.376;2023-09-19T12:39:50;17.30;99.90
51793;DHT22;37850;53.178;6.376;2023-09-19T12:42:19;17.30;99.90
51793;DHT22;37850;53.178;6.376;2023-09-19T12:44:47;17.30;99.90
51793;DHT22;37850;53.178;6.376;2023-09-19T12:47:17;17.30;99.90
51793;DHT22;37850;53.178;6.376;2023-09-19T12:55:24;17.40;99.90
51793;DHT22;37850;53.178;6.376;2023-09-19T12:58:12;17.40;99.90
51793;DHT22;37850;53.178;6.376;2023-09-19T13:00:40;17.50;99.90
51793;DHT22;37850;53.178;6.376;2023-09-19T13:06:07;17.50;99.90
51793;DHT22;37850;53.178;6.376;2023-09-19T13:08:39;17.50;99.90
51793;DHT22;37850;53.178;6.376;2023-09-19T13:11:17;17.50;99.90
51793;DHT22;37850;53.178;6.376;2023-09-19T13:13:47;17.50;99.90
51793;DHT22;37850;53.178;6.376;2023-09-19T13:16:20;17.50;99.90
51793;DHT22;37850;53.178;6.376;2023-09-19T13:18:54;17.60;99.90
51793;DHT22;37850;53.178;6.376;2023-09-19T13:21:34;17.50;99.90
51793;DHT22;37850;53.178;6.376;2023-09-19T13:24:24;17.50;99.90
51793;DHT22;37850;53.178;6.376;2023-09-19T13:26:54;17.50;99.90
51793;DHT22;37850;53.178;6.376;2023-09-19T13:29:20;17.40;99.90
51793;DHT22;37850;53.178;6.376;2023-09-19T13:31:50;17.40;99.90
51793;DHT22;37850;53.178;6.376;2023-09-19T13:34:18;17.30;99.90
51793;DHT22;37850;53.178;6.376;2023-09-19T13:36:45;17.30;99.90
51793;DHT22;37850;53.178;6.376;2023-09-19T13:39:14;17.30;99.90
51793;DHT22;37850;53.178;6.376;2023-09-19T13:41:47;17.30;99.90
51793;DHT22;37850;53.178;6.376;2023-09-19T13:44:14;17.30;99.90
51793;DHT22;37850;53.178;6.376;2023-09-19T13:46:39;17.40;99.90
51793;DHT22;37850;53.178;6.376;2023-09-19T13:49:06;17.40;99.90
51793;DHT22;37850;53.178;6.376;2023-09-19T13:51:32;17.40;99.90
51793;DHT22;37850;53.178;6.376;2023-09-19T13:53:58;17.50;99.90
51793;DHT22;37850;53.178;6.376;2023-09-19T13:56:25;17.50;99.90
51793;DHT22;37850;53.178;6.376;2023-09-19T13:58:54;17.50;99.90
51793;DHT22;37850;53.178;6.376;2023-09-19T14:01:20;17.60;99.90
51793;DHT22;37850;53.178;6.376;2023-09-19T14:03:46;17.60;99.90
51793;DHT22;37850;53.178;6.376;2023-09-19T14:06:17;17.60;99.90
51793;DHT22;37850;53.178;6.376;2023-09-19T14:08:44;17.60;99.90
51793;DHT22;37850;53.178;6.376;2023-09-19T14:11:13;17.60;99.90
51793;DHT22;37850;53.178;6.376;2023-09-19T14:13:42;17.60;99.90
51793;DHT22;37850;53.178;6.376;2023-09-19T14:16:12;17.60;99.90
51793;DHT22;37850;53.178;6.376;2023-09-19T14:18:38;17.60;99.90
51793;DHT22;37850;53.178;6.376;2023-09-19T14:21:06;17.70;99.90
51793;DHT22;37850;53.178;6.376;2023-09-19T14:23:38;17.70;99.90
51793;DHT22;37850;53.178;6.376;2023-09-19T14:26:04;17.70;99.90
51793;DHT22;37850;53.178;6.376;2023-09-19T14:28:33;17.80;99.90
51793;DHT22;37850;53.178;6.376;2023-09-19T14:31:09;17.70;99.90
51793;DHT22;37850;53.178;6.376;2023-09-19T14:33:36;17.70;99.90
51793;DHT22;37850;53.178;6.376;2023-09-19T14:36:03;17.70;99.90
51793;DHT22;37850;53.178;6.376;2023-09-19T14:38:32;17.70;99.90
51793;DHT22;37850;53.178;6.376;2023-09-19T14:41:03;17.70;99.90
51793;DHT22;37850;53.178;6.376;2023-09-19T14:43:29;17.70;99.90
51793;DHT22;37850;53.178;6.376;2023-09-19T14:46:05;17.70;99.90
51793;DHT22;37850;53.178;6.376;2023-09-19T14:48:35;17.70;99.90
51793;DHT22;37850;53.178;6.376;2023-09-19T14:51:05;17.70;99.90
51793;DHT22;37850;53.178;6.376;2023-09-19T14:53:32;17.60;99.90
51793;DHT22;37850;53.178;6.376;2023-09-19T14:56:05;17.60;99.90
51793;DHT22;37850;53.178;6.376;2023-09-19T14:58:31;17.60;99.90
51793;DHT22;37850;53.178;6.376;2023-09-19T15:01:09;17.60;99.90
51793;DHT22;37850;53.178;6.376;2023-09-19T15:03:40;17.50;99.90
51793;DHT22;37850;53.178;6.376;2023-09-19T15:06:10;17.50;99.90
51793;DHT22;37850;53.178;6.376;2023-09-19T15:08:40;17.50;99.90
51793;DHT22;37850;53.178;6.376;2023-09-19T15:11:09;17.50;99.90
51793;DHT22;37850;53.178;6.376;2023-09-19T15:13:36;17.50;99.90
51793;DHT22;37850;53.178;6.376;2023-09-19T15:16:07;17.50;99.90
51793;DHT22;37850;53.178;6.376;2023-09-19T15:18:38;17.40;99.90
51793;DHT22;37850;53.178;6.376;2023-09-19T15:21:05;17.40;99.90
51793;DHT22;37850;53.178;6.376;2023-09-19T15:23:32;17.40;99.90
51793;DHT22;37850;53.178;6.376;2023-09-19T15:26:06;17.40;99.90
51793;DHT22;37850;53.178;6.376;2023-09-19T15:28:32;17.30;99.90
51793;DHT22;37850;53.178;6.376;2023-09-19T15:31:09;17.30;99.90
51793;DHT22;37850;53.178;6.376;2023-09-19T15:33:35;17.20;99.90
51793;DHT22;37850;53.178;6.376;2023-09-19T15:36:02;17.20;99.90
51793;DHT22;37850;53.178;6.376;2023-09-19T15:38:30;17.20;99.90
51793;DHT22;37850;53.178;6.376;2023-09-19T15:40:58;17.10;99.90
51793;DHT22;37850;53.178;6.376;2023-09-19T15:43:24;17.10;99.90
51793;DHT22;37850;53.178;6.376;2023-09-19T15:45:50;17.00;99.90
51793;DHT22;37850;53.178;6.376;2023-09-19T15:48:16;17.00;99.90
51793;DHT22;37850;53.178;6.376;2023-09-19T15:50:42;16.90;99.90
51793;DHT22;37850;53.178;6.376;2023-09-19T15:53:09;17.00;99.90
51793;DHT22;37850;53.178;6.376;2023-09-19T15:55:39;16.90;99.90
51793;DHT22;37850;53.178;6.376;2023-09-19T15:58:06;16.90;99.90
51793;DHT22;37850;53.178;6.376;2023-09-19T16:00:32;16.90;99.90
51793;DHT22;37850;53.178;6.376;2023-09-19T16:03:02;16.80;99.90
51793;DHT22;37850;53.178;6.376;2023-09-19T16:05:28;16.80;99.90
51793;DHT22;37850;53.178;6.376;2023-09-19T16:07:54;16.80;99.90
51793;DHT22;37850;53.178;6.376;2023-09-19T16:10:19;16.80;99.90
51793;DHT22;37850;53.178;6.376;2023-09-19T16:12:47;16.80;99.90
51793;DHT22;37850;53.178;6.376;2023-09-19T16:15:13;16.80;99.90
51793;DHT22;37850;53.178;6.376;2023-09-19T16:17:41;16.80;99.90
51793;DHT22;37850;53.178;6.376;2023-09-19T16:20:07;16.80;99.90
51793;DHT22;37850;53.178;6.376;2023-09-19T16:22:33;16.80;99.90
51793;DHT22;37850;53.178;6.376;2023-09-19T16:24:59;16.70;99.90
51793;DHT22;37850;53.178;6.376;2023-09-19T16:27:25;16.70;99.90
51793;DHT22;37850;53.178;6.376;2023-09-19T16:29:50;16.70;99.90
51793;DHT22;37850;53.178;6.376;2023-09-19T16:32:16;16.70;99.90
51793;DHT22;37850;53.178;6.376;2023-09-19T16:34:42;16.70;99.90
51793;DHT22;37850;53.178;6.376;2023-09-19T16:37:08;16.60;99.90